Time;durP1;ratioP1;P1;durP2;ratioP2;P2;SDS_P1;SDS_P2;PMS_P1;PMS_P2;Temp;Humidity;BMP_temperature;BMP_pressure;BME280_temperature;BME280_humidity;BME280_pressure;Samples;Min_cycle;Max_cycle;Signal;HPM_P1;HPM_P2
2022/08/13 00:00:54;;;;;;;;;10.25;10.00;;;;;;;;5093760;27;46115;-78
2022/08/13 00:03:19;;;;;;;;;7.75;7.75;;;;;;;;5090030;27;45521;-78
2022/08/13 00:05:44;;;;;;;;;10.00;10.00;;;;;;;;5096322;27;45302;-78
2022/08/13 00:08:09;;;;;;;;;6.75;6.75;;;;;;;;5096579;27;45300;-78
2022/08/13 00:10:35;;;;;;;;;8.50;8.50;;;;;;;;5089292;27;46211;-78
2022/08/13 00:13:03;;;;;;;;;10.00;9.00;;;;;;;;5096170;27;45439;-79
2022/08/13 00:15:35;;;;;;;;;9.00;9.00;;;;;;;;5081263;27;45406;-77
2022/08/13 00:18:02;;;;;;;;;8.50;8.50;;;;;;;;5096490;27;45217;-78
2022/08/13 00:20:30;;;;;;;;;9.75;9.75;;;;;;;;5085026;27;45378;-78
2022/08/13 00:22:56;;;;;;;;;8.25;8.25;;;;;;;;5093063;27;45402;-78
2022/08/13 00:25:23;;;;;;;;;10.00;10.00;;;;;;;;5096418;27;45286;-78
2022/08/13 00:27:48;;;;;;;;;10.25;10.25;;;;;;;;5096122;27;45375;-78
2022/08/13 00:30:15;;;;;;;;;8.50;7.75;;;;;;;;5095816;27;46066;-78
2022/08/13 00:32:41;;;;;;;;;9.50;9.50;;;;;;;;5096233;27;45540;-78
2022/08/13 00:35:06;;;;;;;;;10.00;10.00;;;;;;;;5090451;27;45380;-78
2022/08/13 00:37:32;;;;;;;;;9.00;9.00;;;;;;;;5087660;27;45525;-78
2022/08/13 00:39:57;;;;;;;;;8.00;7.75;;;;;;;;5090805;27;46152;-78
2022/08/13 00:42:23;;;;;;;;;10.00;10.00;;;;;;;;5096223;27;45312;-77
2022/08/13 00:44:49;;;;;;;;;10.25;10.25;;;;;;;;5082046;27;45434;-79
2022/08/13 00:50:00;;;;;;;;;8.50;8.50;;;;;;;;5095710;27;45825;-78
2022/08/13 00:52:30;;;;;;;;;12.75;11.00;;;;;;;;5095846;27;45602;-78
2022/08/13 00:54:59;;;;;;;;;10.75;10.75;;;;;;;;5095717;27;45212;-78
2022/08/13 00:57:24;;;;;;;;;11.25;11.25;;;;;;;;5095873;27;45492;-78
2022/08/13 00:59:50;;;;;;;;;10.00;10.00;;;;;;;;5079831;27;46558;-78
2022/08/13 01:02:16;;;;;;;;;10.25;10.25;;;;;;;;5091920;27;45531;-78
2022/08/13 01:04:42;;;;;;;;;10.00;10.00;;;;;;;;5093573;27;45454;-78
2022/08/13 01:07:07;;;;;;;;;11.75;10.25;;;;;;;;5095910;27;45388;-79
2022/08/13 01:09:32;;;;;;;;;10.25;10.25;;;;;;;;5097092;27;45478;-79
2022/08/13 01:11:58;;;;;;;;;10.50;10.50;;;;;;;;5087421;27;45414;-78
2022/08/13 01:14:24;;;;;;;;;13.25;11.25;;;;;;;;5097922;27;45465;-78
2022/08/13 01:16:52;;;;;;;;;8.00;8.00;;;;;;;;5098986;27;45419;-78
2022/08/13 01:19:17;;;;;;;;;9.25;9.25;;;;;;;;5084246;27;47149;-77
2022/08/13 01:21:44;;;;;;;;;11.25;11.25;;;;;;;;5098861;27;45367;-79
2022/08/13 01:24:10;;;;;;;;;10.00;10.00;;;;;;;;5098353;27;45383;-78
2022/08/13 01:26:35;;;;;;;;;11.75;11.75;;;;;;;;5098917;27;45487;-78
2022/08/13 01:29:04;;;;;;;;;10.00;10.00;;;;;;;;5097979;27;46283;-78
2022/08/13 01:31:30;;;;;;;;;10.75;10.75;;;;;;;;5095136;27;45293;-78
2022/08/13 01:33:59;;;;;;;;;3.00;3.00;;;;;;;;5085257;27;45372;-77
2022/08/13 01:36:25;;;;;;;;;13.00;11.00;;;;;;;;5080399;27;45506;-78
2022/08/13 01:38:50;;;;;;;;;10.00;9.50;;;;;;;;5092125;27;45909;-78
2022/08/13 01:41:15;;;;;;;;;10.00;10.00;;;;;;;;5093696;27;45450;-77
2022/08/13 01:43:41;;;;;;;;;9.00;9.00;;;;;;;;5092063;27;45458;-77
2022/08/13 01:46:07;;;;;;;;;9.25;9.25;;;;;;;;5090454;27;45395;-78
2022/08/13 01:51:32;;;;;;;;;10.00;10.00;;;;;;;;5085436;27;45411;-78
2022/08/13 01:53:58;;;;;;;;;8.00;8.00;;;;;;;;5071336;27;45376;-79
2022/08/13 01:56:24;;;;;;;;;9.75;9.75;;;;;;;;5098033;27;45361;-77
2022/08/13 01:58:50;;;;;;;;;9.75;9.75;;;;;;;;5098095;27;46280;-78
2022/08/13 02:01:16;;;;;;;;;8.75;8.75;;;;;;;;5098184;27;45578;-79
2022/08/13 02:03:44;;;;;;;;;11.50;11.50;;;;;;;;5084544;27;45529;-78
2022/08/13 02:06:11;;;;;;;;;10.00;10.00;;;;;;;;5087183;27;45446;-78
2022/08/13 02:08:38;;;;;;;;;9.50;9.50;;;;;;;;5082769;27;46399;-78
2022/08/13 02:11:03;;;;;;;;;9.75;9.75;;;;;;;;5096795;27;45481;-78
2022/08/13 02:13:29;;;;;;;;;10.50;10.50;;;;;;;;5097143;27;45473;-78
2022/08/13 02:15:55;;;;;;;;;11.25;10.75;;;;;;;;5084755;27;46232;-78
2022/08/13 02:18:21;;;;;;;;;11.75;10.00;;;;;;;;5090338;27;45832;-78
2022/08/13 02:20:47;;;;;;;;;10.25;10.25;;;;;;;;5077873;27;45213;-78
2022/08/13 02:23:20;;;;;;;;;9.50;9.50;;;;;;;;5097547;27;45429;-78
2022/08/13 02:25:46;;;;;;;;;11.75;11.00;;;;;;;;5084888;27;45334;-78
2022/08/13 02:28:14;;;;;;;;;9.50;8.75;;;;;;;;5091546;27;45399;-77
2022/08/13 02:30:40;;;;;;;;;10.25;10.25;;;;;;;;5086936;27;45275;-78
2022/08/13 02:33:05;;;;;;;;;9.00;9.00;;;;;;;;5094355;27;45476;-78
2022/08/13 02:35:31;;;;;;;;;11.00;11.00;;;;;;;;5081406;27;45354;-78
2022/08/13 02:37:56;;;;;;;;;12.50;11.50;;;;;;;;5092160;27;45851;-79
2022/08/13 02:43:05;;;;;;;;;8.75;8.75;;;;;;;;5097804;27;45396;-77
2022/08/13 02:45:31;;;;;;;;;9.50;9.50;;;;;;;;5086495;27;45335;-78
2022/08/13 02:47:57;;;;;;;;;11.00;11.00;;;;;;;;5090081;27;46939;-78
2022/08/13 02:50:24;;;;;;;;;11.75;11.75;;;;;;;;5084730;27;45350;-78
2022/08/13 02:52:51;;;;;;;;;10.75;10.75;;;;;;;;5092138;27;45422;-78
2022/08/13 02:55:16;;;;;;;;;11.00;11.00;;;;;;;;5089764;27;45379;-78
2022/08/13 02:57:42;;;;;;;;;11.25;11.25;;;;;;;;5093035;27;45274;-77
2022/08/13 03:00:08;;;;;;;;;8.75;8.75;;;;;;;;5092337;27;45472;-78
2022/08/13 03:02:42;;;;;;;;;10.00;10.00;;;;;;;;5097025;27;45453;-78
2022/08/13 03:05:08;;;;;;;;;12.50;11.50;;;;;;;;5095840;27;45513;-78
2022/08/13 03:07:34;;;;;;;;;9.75;9.75;;;;;;;;5065300;27;46978;-78
2022/08/13 03:09:59;;;;;;;;;8.75;8.75;;;;;;;;5096977;27;45349;-78
2022/08/13 03:12:25;;;;;;;;;11.25;11.25;;;;;;;;5091453;27;45426;-78
2022/08/13 03:14:51;;;;;;;;;9.50;9.50;;;;;;;;5081841;27;45395;-78
2022/08/13 03:17:16;;;;;;;;;10.00;10.00;;;;;;;;5092471;27;45997;-78
2022/08/13 03:19:41;;;;;;;;;11.00;11.00;;;;;;;;5082761;27;45363;-78
2022/08/13 03:22:06;;;;;;;;;9.75;9.75;;;;;;;;5086626;27;46427;-77
2022/08/13 03:24:33;;;;;;;;;9.75;9.00;;;;;;;;5093041;27;45402;-78
2022/08/13 03:27:00;;;;;;;;;9.50;9.50;;;;;;;;5096851;27;47010;-79
2022/08/13 03:29:26;;;;;;;;;11.25;10.75;;;;;;;;5096747;27;45379;-79
2022/08/13 03:31:51;;;;;;;;;8.25;8.25;;;;;;;;5096706;27;45288;-78
2022/08/13 03:34:20;;;;;;;;;14.00;13.25;;;;;;;;5091477;27;45323;-78
2022/08/13 03:36:45;;;;;;;;;8.25;8.25;;;;;;;;5084471;27;46959;-78
2022/08/13 03:39:10;;;;;;;;;9.25;9.25;;;;;;;;5096520;27;45299;-79
2022/08/13 03:41:36;;;;;;;;;11.75;11.75;;;;;;;;5090748;27;45161;-78
2022/08/13 03:44:02;;;;;;;;;12.25;10.75;;;;;;;;5085468;27;45421;-78
2022/08/13 03:46:27;;;;;;;;;10.75;10.75;;;;;;;;5096495;27;46919;-78
2022/08/13 03:48:53;;;;;;;;;9.50;9.50;;;;;;;;5096925;27;45460;-78
2022/08/13 03:51:22;;;;;;;;;11.50;10.00;;;;;;;;5083919;27;45380;-78
2022/08/13 03:53:49;;;;;;;;;10.00;10.00;;;;;;;;5081080;27;46551;-78
2022/08/13 03:56:15;;;;;;;;;9.50;9.50;;;;;;;;5088075;27;47129;-79
2022/08/13 03:58:40;;;;;;;;;11.00;11.00;;;;;;;;5086939;27;45375;-78
2022/08/13 04:01:05;;;;;;;;;12.25;10.25;;;;;;;;5094115;27;45508;-78
2022/08/13 04:03:36;;;;;;;;;10.75;10.75;;;;;;;;5084331;27;45395;-79
2022/08/13 04:06:06;;;;;;;;;8.00;8.00;;;;;;;;5096156;27;47473;-79
2022/08/13 04:08:35;;;;;;;;;11.25;11.25;;;;;;;;5087632;27;45368;-78
2022/08/13 04:11:05;;;;;;;;;10.75;10.75;;;;;;;;5089539;27;45439;-77
2022/08/13 04:13:36;;;;;;;;;10.50;10.25;;;;;;;;5095265;27;45395;-78
2022/08/13 04:16:22;;;;;;;;;9.00;9.00;;;;;;;;5067641;27;45676;-78
2022/08/13 04:18:47;;;;;;;;;10.75;10.75;;;;;;;;5089006;27;45361;-78
2022/08/13 04:21:14;;;;;;;;;10.00;10.00;;;;;;;;5078632;27;45205;-78
2022/08/13 04:23:41;;;;;;;;;10.75;10.75;;;;;;;;5096356;27;45343;-78
2022/08/13 04:26:08;;;;;;;;;6.25;6.25;;;;;;;;5092575;27;46206;-78
2022/08/13 04:28:33;;;;;;;;;8.50;8.50;;;;;;;;5096183;27;45446;-78
2022/08/13 04:31:00;;;;;;;;;9.25;9.25;;;;;;;;5096295;27;45390;-78
2022/08/13 04:33:26;;;;;;;;;9.00;8.25;;;;;;;;5095272;27;45434;-78
2022/08/13 04:35:51;;;;;;;;;12.00;11.00;;;;;;;;5077558;27;46375;-78
2022/08/13 04:38:17;;;;;;;;;12.25;10.00;;;;;;;;5087881;27;45615;-78
2022/08/13 04:40:42;;;;;;;;;9.25;9.25;;;;;;;;5092818;27;45374;-78
2022/08/13 04:43:10;;;;;;;;;11.25;10.50;;;;;;;;5097608;27;45351;-78
2022/08/13 04:45:36;;;;;;;;;9.50;9.50;;;;;;;;5098583;27;45408;-78
2022/08/13 04:48:04;;;;;;;;;8.75;8.00;;;;;;;;5099606;27;45525;-78
2022/08/13 04:50:32;;;;;;;;;9.75;8.75;;;;;;;;5099473;27;45447;-78
2022/08/13 04:52:58;;;;;;;;;9.25;9.25;;;;;;;;5099463;27;45301;-78
2022/08/13 04:55:24;;;;;;;;;11.25;10.75;;;;;;;;5099176;27;45843;-78
2022/08/13 04:57:49;;;;;;;;;11.25;11.25;;;;;;;;5099541;27;45358;-79
2022/08/13 05:00:15;;;;;;;;;10.00;10.00;;;;;;;;5098953;27;45394;-79
2022/08/13 05:02:41;;;;;;;;;10.00;10.00;;;;;;;;5093181;27;45347;-78
2022/08/13 05:05:07;;;;;;;;;11.00;11.00;;;;;;;;5080753;27;46374;-77
2022/08/13 05:07:32;;;;;;;;;10.25;10.25;;;;;;;;5090713;27;45418;-78
2022/08/13 05:09:57;;;;;;;;;9.50;9.50;;;;;;;;5092851;27;45453;-78
2022/08/13 05:12:23;;;;;;;;;10.00;10.00;;;;;;;;5097362;27;45363;-78
2022/08/13 05:14:48;;;;;;;;;9.75;9.75;;;;;;;;5097449;27;45401;-78
2022/08/13 05:17:13;;;;;;;;;10.25;10.25;;;;;;;;5086564;27;45355;-78
2022/08/13 05:19:39;;;;;;;;;8.75;8.75;;;;;;;;5096485;27;45511;-79
2022/08/13 05:22:05;;;;;;;;;9.25;9.25;;;;;;;;5088240;27;45358;-78
2022/08/13 05:24:32;;;;;;;;;9.75;9.75;;;;;;;;5092828;27;45376;-79
2022/08/13 05:26:58;;;;;;;;;11.00;11.00;;;;;;;;5086961;27;45617;-79
2022/08/13 05:29:23;;;;;;;;;10.75;10.75;;;;;;;;5098955;27;45436;-79
2022/08/13 05:31:49;;;;;;;;;9.50;9.50;;;;;;;;5095228;27;45410;-78
2022/08/13 05:34:15;;;;;;;;;10.75;10.75;;;;;;;;5093062;27;45419;-78
2022/08/13 05:36:42;;;;;;;;;10.75;10.25;;;;;;;;5085672;27;45470;-78
2022/08/13 05:39:08;;;;;;;;;7.25;7.25;;;;;;;;5094801;27;45287;-78
2022/08/13 05:41:33;;;;;;;;;11.50;10.75;;;;;;;;5094506;27;45464;-78
2022/08/13 05:43:58;;;;;;;;;9.00;9.00;;;;;;;;5093572;27;45386;-78
2022/08/13 05:46:24;;;;;;;;;8.50;8.50;;;;;;;;5093017;27;45276;-78
2022/08/13 05:48:58;;;;;;;;;8.25;8.25;;;;;;;;5098520;27;45279;-78
2022/08/13 05:51:25;;;;;;;;;10.25;10.25;;;;;;;;5092407;27;45483;-77
2022/08/13 05:53:54;;;;;;;;;12.50;11.25;;;;;;;;5082990;27;45413;-77
2022/08/13 05:56:21;;;;;;;;;12.75;10.25;;;;;;;;5090085;27;45451;-77
2022/08/13 05:58:47;;;;;;;;;10.00;10.00;;;;;;;;5095618;27;45462;-77
2022/08/13 06:03:56;;;;;;;;;9.75;9.75;;;;;;;;5105024;27;45759;-78
2022/08/13 06:06:22;;;;;;;;;9.25;9.25;;;;;;;;5098156;27;45260;-78
2022/08/13 06:08:47;;;;;;;;;9.00;9.00;;;;;;;;5098366;27;45497;-78
2022/08/13 06:11:16;;;;;;;;;9.25;9.00;;;;;;;;5104025;27;45440;-78
2022/08/13 06:13:42;;;;;;;;;11.25;11.25;;;;;;;;5097792;27;47109;-77
2022/08/13 06:16:08;;;;;;;;;9.25;9.25;;;;;;;;5094802;27;45480;-77
2022/08/13 06:18:35;;;;;;;;;10.00;9.50;;;;;;;;5086596;27;45220;-77
2022/08/13 06:21:02;;;;;;;;;9.75;9.75;;;;;;;;5101484;27;45211;-77
2022/08/13 06:23:28;;;;;;;;;11.00;9.50;;;;;;;;5097952;27;45470;-77
2022/08/13 06:25:54;;;;;;;;;9.00;9.00;;;;;;;;5097979;27;45405;-77
2022/08/13 06:28:21;;;;;;;;;8.25;8.25;;;;;;;;5097948;27;45355;-78
2022/08/13 06:30:47;;;;;;;;;7.75;7.75;;;;;;;;5098036;27;45558;-78
2022/08/13 06:33:13;;;;;;;;;11.00;10.50;;;;;;;;5097072;27;46345;-78
2022/08/13 06:35:38;;;;;;;;;9.75;9.25;;;;;;;;5097600;27;45637;-78
2022/08/13 06:38:06;;;;;;;;;9.25;9.25;;;;;;;;5097677;27;45462;-78
2022/08/13 06:40:35;;;;;;;;;10.00;10.00;;;;;;;;5097438;27;45381;-78
2022/08/13 06:43:01;;;;;;;;;10.00;9.00;;;;;;;;5097402;27;46412;-78
2022/08/13 06:45:26;;;;;;;;;13.75;10.00;;;;;;;;5097467;27;45342;-78
2022/08/13 06:47:52;;;;;;;;;10.00;8.00;;;;;;;;5097160;27;45349;-78
2022/08/13 06:50:17;;;;;;;;;8.75;8.75;;;;;;;;5097606;27;45306;-78
2022/08/13 06:52:42;;;;;;;;;10.25;10.25;;;;;;;;5097340;27;45312;-78
2022/08/13 06:55:08;;;;;;;;;10.00;9.75;;;;;;;;5097079;27;45393;-78
2022/08/13 06:57:36;;;;;;;;;10.50;9.25;;;;;;;;5097414;27;45220;-78
2022/08/13 07:00:03;;;;;;;;;9.00;8.50;;;;;;;;5090854;27;45498;-78
2022/08/13 07:02:31;;;;;;;;;8.25;8.25;;;;;;;;5092309;27;47015;-79
2022/08/13 07:04:58;;;;;;;;;9.25;9.25;;;;;;;;5089453;27;45545;-78
2022/08/13 07:07:24;;;;;;;;;8.75;8.75;;;;;;;;5097163;27;45432;-79
2022/08/13 07:09:49;;;;;;;;;8.25;8.25;;;;;;;;5093254;27;45280;-79
2022/08/13 07:12:15;;;;;;;;;11.00;9.75;;;;;;;;5093972;27;46081;-78
2022/08/13 07:14:41;;;;;;;;;9.75;9.75;;;;;;;;5095818;27;45461;-78
2022/08/13 07:17:07;;;;;;;;;10.25;9.50;;;;;;;;5094533;27;45293;-78
2022/08/13 07:19:34;;;;;;;;;9.33;8.00;;;;;;;;5094007;27;45441;-78
2022/08/13 07:21:59;;;;;;;;;7.75;7.75;;;;;;;;5088728;27;46509;-78
2022/08/13 07:24:26;;;;;;;;;7.75;7.75;;;;;;;;5092096;27;45465;-77
2022/08/13 07:26:52;;;;;;;;;9.50;9.50;;;;;;;;5097282;27;45354;-79
2022/08/13 07:29:19;;;;;;;;;6.75;5.25;;;;;;;;5095832;27;45249;-78
2022/08/13 07:31:45;;;;;;;;;9.25;9.25;;;;;;;;5095385;27;46721;-78
2022/08/13 07:34:10;;;;;;;;;9.00;9.00;;;;;;;;5092903;27;45358;-79
2022/08/13 07:36:37;;;;;;;;;10.25;10.25;;;;;;;;5083367;27;45319;-78
2022/08/13 07:39:08;;;;;;;;;7.67;7.67;;;;;;;;5096944;27;45605;-78
2022/08/13 07:41:41;;;;;;;;;8.25;8.25;;;;;;;;5080005;27;45396;-78
2022/08/13 07:44:09;;;;;;;;;7.67;7.67;;;;;;;;5096079;27;45346;-78
2022/08/13 07:46:42;;;;;;;;;9.00;8.00;;;;;;;;5080479;27;45396;-78
2022/08/13 07:49:09;;;;;;;;;10.00;10.00;;;;;;;;5085193;27;45493;-78
2022/08/13 07:51:37;;;;;;;;;9.00;9.00;;;;;;;;5082218;27;45515;-78
2022/08/13 07:54:05;;;;;;;;;9.00;9.00;;;;;;;;5095397;27;45568;-78
2022/08/13 07:56:32;;;;;;;;;10.50;10.50;;;;;;;;5096898;27;45310;-78
2022/08/13 07:59:02;;;;;;;;;10.00;8.75;;;;;;;;5096048;27;45631;-79
2022/08/13 08:01:28;;;;;;;;;10.50;10.50;;;;;;;;5112512;27;47208;-79
2022/08/13 08:03:56;;;;;;;;;13.25;10.00;;;;;;;;5104467;27;45443;-79
2022/08/13 08:06:21;;;;;;;;;8.00;8.00;;;;;;;;5116010;27;45462;-78
2022/08/13 08:08:47;;;;;;;;;8.00;8.00;;;;;;;;5117082;27;45370;-78
2022/08/13 08:13:59;;;;;;;;;8.50;8.50;;;;;;;;5098645;27;45374;-78
2022/08/13 08:16:26;;;;;;;;;7.75;7.75;;;;;;;;5106523;27;45369;-78
2022/08/13 08:18:51;;;;;;;;;9.33;9.33;;;;;;;;5120624;27;45515;-79
2022/08/13 08:21:21;;;;;;;;;9.00;9.00;;;;;;;;5120199;27;46300;-79
2022/08/13 08:23:46;;;;;;;;;9.75;9.75;;;;;;;;5110167;27;45303;-78
2022/08/13 08:26:11;;;;;;;;;9.75;9.75;;;;;;;;5119165;27;45440;-78
2022/08/13 08:28:37;;;;;;;;;8.00;8.00;;;;;;;;5119456;27;45237;-80
2022/08/13 08:31:06;;;;;;;;;9.00;9.00;;;;;;;;5120410;27;47480;-79
2022/08/13 08:33:32;;;;;;;;;7.00;7.00;;;;;;;;5119141;27;45439;-80
2022/08/13 08:35:57;;;;;;;;;11.00;9.25;;;;;;;;5111071;27;45404;-78
2022/08/13 08:43:53;;;;;;;;;9.00;9.00;;;;;;;;5088524;27;45379;-79
2022/08/13 08:46:20;;;;;;;;;10.25;10.25;;;;;;;;5113504;27;45544;-78
2022/08/13 08:48:45;;;;;;;;;7.00;7.00;;;;;;;;5114226;27;45423;-79
2022/08/13 08:51:10;;;;;;;;;8.67;8.67;;;;;;;;5110289;27;45417;-79
2022/08/13 08:53:36;;;;;;;;;8.00;8.00;;;;;;;;5119963;27;45393;-79
2022/08/13 08:56:04;;;;;;;;;8.00;8.00;;;;;;;;5120359;27;45473;-78
2022/08/13 08:58:29;;;;;;;;;9.00;9.00;;;;;;;;5119876;27;45404;-79
2022/08/13 09:00:56;;;;;;;;;7.00;7.00;;;;;;;;5105098;27;46028;-79
2022/08/13 09:03:24;;;;;;;;;7.25;7.25;;;;;;;;5087298;27;45324;-79
2022/08/13 09:05:49;;;;;;;;;7.67;6.67;;;;;;;;5066816;27;45362;-78
2022/08/13 09:08:18;;;;;;;;;6.33;6.33;;;;;;;;5091187;27;45386;-79
2022/08/13 09:10:46;;;;;;;;;8.00;8.00;;;;;;;;5083839;27;47182;-78
2022/08/13 09:13:12;;;;;;;;;7.00;6.33;;;;;;;;5094153;27;45205;-78
2022/08/13 09:15:40;;;;;;;;;7.25;7.25;;;;;;;;5099088;27;45420;-78
2022/08/13 09:18:06;;;;;;;;;8.75;8.50;;;;;;;;5098943;27;45361;-79
2022/08/13 09:20:33;;;;;;;;;8.00;8.00;;;;;;;;5099033;27;46055;-79
2022/08/13 09:23:01;;;;;;;;;8.00;8.00;;;;;;;;5098960;27;45401;-78
2022/08/13 09:25:26;;;;;;;;;9.00;9.00;;;;;;;;5098806;27;45370;-78
2022/08/13 09:27:52;;;;;;;;;7.00;7.00;;;;;;;;5098550;27;45432;-78
2022/08/13 09:30:18;;;;;;;;;9.00;8.00;;;;;;;;5098496;27;46002;-78
2022/08/13 09:32:45;;;;;;;;;6.00;6.00;;;;;;;;5080599;27;45373;-78
2022/08/13 09:35:11;;;;;;;;;8.00;8.00;;;;;;;;5092663;27;45401;-78
2022/08/13 09:37:36;;;;;;;;;8.00;8.00;;;;;;;;5090619;27;45374;-78
2022/08/13 09:40:04;;;;;;;;;7.00;7.00;;;;;;;;5097092;27;45621;-78
2022/08/13 09:42:33;;;;;;;;;8.75;8.00;;;;;;;;5098699;27;45298;-79
2022/08/13 09:45:00;;;;;;;;;8.00;8.00;;;;;;;;5097178;27;45323;-78
2022/08/13 09:47:25;;;;;;;;;8.00;8.00;;;;;;;;5098878;27;45416;-77
2022/08/13 09:49:51;;;;;;;;;7.50;7.50;;;;;;;;5094549;27;45528;-78
2022/08/13 09:52:17;;;;;;;;;7.33;7.33;;;;;;;;5097306;27;45340;-77
2022/08/13 09:54:43;;;;;;;;;7.00;7.00;;;;;;;;5098327;27;45344;-77
2022/08/13 09:57:08;;;;;;;;;8.00;8.00;;;;;;;;5098489;27;45321;-76
2022/08/13 09:59:34;;;;;;;;;9.67;9.67;;;;;;;;5090089;27;47111;-78
2022/08/13 10:02:02;;;;;;;;;7.67;6.00;;;;;;;;5097644;27;45835;-77
2022/08/13 10:04:29;;;;;;;;;7.00;7.00;;;;;;;;5087211;27;45501;-78
2022/08/13 10:06:58;;;;;;;;;6.67;6.67;;;;;;;;5083811;27;45459;-78
2022/08/13 10:09:26;;;;;;;;;7.00;7.00;;;;;;;;5097615;27;46653;-77
2022/08/13 10:11:52;;;;;;;;;7.33;6.33;;;;;;;;5091606;27;45393;-78
2022/08/13 10:14:17;;;;;;;;;7.00;7.00;;;;;;;;5097953;27;45467;-77
2022/08/13 10:16:42;;;;;;;;;6.00;6.00;;;;;;;;5098362;27;45397;-77
2022/08/13 10:19:08;;;;;;;;;7.25;7.25;;;;;;;;5097928;27;45449;-77
2022/08/13 10:21:33;;;;;;;;;7.25;7.25;;;;;;;;5092151;27;45419;-78
2022/08/13 10:23:58;;;;;;;;;7.00;7.00;;;;;;;;5088916;27;45326;-79
2022/08/13 10:26:24;;;;;;;;;6.00;6.00;;;;;;;;5083398;27;45363;-79
2022/08/13 10:28:49;;;;;;;;;8.50;8.50;;;;;;;;5098078;27;46365;-79
2022/08/13 10:31:14;;;;;;;;;7.00;7.00;;;;;;;;5098014;27;45536;-78
2022/08/13 10:33:39;;;;;;;;;6.25;6.25;;;;;;;;5095525;27;45444;-79
2022/08/13 10:36:06;;;;;;;;;6.25;6.25;;;;;;;;5080676;27;45372;-78
2022/08/13 10:38:32;;;;;;;;;6.00;6.00;;;;;;;;5096822;27;47870;-78
2022/08/13 10:40:58;;;;;;;;;6.00;6.00;;;;;;;;5095375;27;45443;-78
2022/08/13 10:43:24;;;;;;;;;5.25;5.25;;;;;;;;5097703;27;45334;-78
2022/08/13 10:45:56;;;;;;;;;7.00;7.00;;;;;;;;5096732;27;45505;-78
2022/08/13 10:48:25;;;;;;;;;7.00;7.00;;;;;;;;5095986;27;46896;-79
2022/08/13 10:50:51;;;;;;;;;6.00;5.25;;;;;;;;5097576;27;45311;-79
2022/08/13 10:56:01;;;;;;;;;4.67;4.67;;;;;;;;5097597;27;45377;-78
2022/08/13 10:58:26;;;;;;;;;7.00;6.00;;;;;;;;5097249;27;45836;-78
2022/08/13 11:00:51;;;;;;;;;7.75;7.75;;;;;;;;5096819;27;45238;-77
2022/08/13 11:03:17;;;;;;;;;7.67;6.33;;;;;;;;5097047;27;45414;-78
2022/08/13 11:05:42;;;;;;;;;6.50;6.50;;;;;;;;5097486;27;45474;-78
2022/08/13 11:08:12;;;;;;;;;7.00;6.00;;;;;;;;5097001;27;45493;-79
2022/08/13 11:10:37;;;;;;;;;6.00;6.00;;;;;;;;5103156;27;45412;-78
2022/08/13 11:13:04;;;;;;;;;6.33;6.00;;;;;;;;5097370;27;45311;-77
2022/08/13 11:15:29;;;;;;;;;4.50;4.50;;;;;;;;5096733;27;45425;-78
2022/08/13 11:17:55;;;;;;;;;5.25;5.25;;;;;;;;5082669;27;47281;-78
2022/08/13 11:20:22;;;;;;;;;6.75;6.75;;;;;;;;5097256;27;45395;-78
2022/08/13 11:22:49;;;;;;;;;5.33;5.33;;;;;;;;5096592;27;45413;-77
2022/08/13 11:25:14;;;;;;;;;6.00;5.33;;;;;;;;5096903;27;45499;-77
2022/08/13 11:27:39;;;;;;;;;8.50;8.50;;;;;;;;5097048;27;46082;-76
2022/08/13 11:30:05;;;;;;;;;5.00;4.67;;;;;;;;5096773;27;45370;-77
2022/08/13 11:32:30;;;;;;;;;5.00;5.00;;;;;;;;5097167;27;45453;-78
2022/08/13 11:34:55;;;;;;;;;5.75;5.75;;;;;;;;5096830;27;45275;-78
2022/08/13 11:37:20;;;;;;;;;5.50;5.50;;;;;;;;5096309;27;46383;-78
2022/08/13 11:39:45;;;;;;;;;6.33;6.33;;;;;;;;5097531;27;45639;-77
2022/08/13 11:42:11;;;;;;;;;8.00;8.00;;;;;;;;5096885;27;45311;-78
2022/08/13 11:44:36;;;;;;;;;6.33;6.00;;;;;;;;5096659;27;45439;-77
2022/08/13 11:47:01;;;;;;;;;6.00;6.00;;;;;;;;5096781;27;46057;-78
2022/08/13 11:49:26;;;;;;;;;5.33;5.33;;;;;;;;5096653;27;45250;-78
2022/08/13 11:51:51;;;;;;;;;7.00;6.00;;;;;;;;5096256;27;45417;-78
2022/08/13 11:54:18;;;;;;;;;6.00;6.00;;;;;;;;5096939;27;45436;-78
2022/08/13 11:56:43;;;;;;;;;7.33;7.33;;;;;;;;5096461;27;45975;-77
2022/08/13 11:59:08;;;;;;;;;5.67;5.67;;;;;;;;5096411;27;45462;-78
2022/08/13 12:01:34;;;;;;;;;6.00;6.00;;;;;;;;5088108;27;45398;-78
2022/08/13 12:04:00;;;;;;;;;5.00;4.00;;;;;;;;5084173;27;45599;-79
2022/08/13 12:06:25;;;;;;;;;5.00;5.00;;;;;;;;5096344;27;45422;-78
2022/08/13 12:08:50;;;;;;;;;7.00;7.00;;;;;;;;5096084;27;45342;-78
2022/08/13 12:11:16;;;;;;;;;7.67;7.67;;;;;;;;5095581;27;45200;-78
2022/08/13 12:13:42;;;;;;;;;5.33;5.33;;;;;;;;5096274;27;45288;-78
2022/08/13 12:16:07;;;;;;;;;5.00;5.00;;;;;;;;5085221;27;46000;-79
2022/08/13 12:18:32;;;;;;;;;6.00;6.00;;;;;;;;5085050;27;45468;-78
2022/08/13 12:20:57;;;;;;;;;6.67;5.67;;;;;;;;5096090;27;45305;-78
2022/08/13 12:23:23;;;;;;;;;6.67;5.33;;;;;;;;5078112;27;45455;-78
2022/08/13 12:25:48;;;;;;;;;5.33;5.33;;;;;;;;5096414;27;46025;-78
2022/08/13 12:28:15;;;;;;;;;4.33;4.33;;;;;;;;5096165;27;45383;-78
2022/08/13 12:30:41;;;;;;;;;7.00;7.00;;;;;;;;5074168;28;45468;-78
2022/08/13 12:33:06;;;;;;;;;6.67;6.67;;;;;;;;5076238;27;45432;-78
2022/08/13 12:35:32;;;;;;;;;5.00;5.00;;;;;;;;5079654;27;46008;-78
2022/08/13 12:37:57;;;;;;;;;7.67;7.00;;;;;;;;5090589;27;45244;-78
2022/08/13 12:40:23;;;;;;;;;5.67;4.67;;;;;;;;5095336;27;45328;-78
2022/08/13 12:42:48;;;;;;;;;5.33;5.33;;;;;;;;5096103;27;45298;-78
2022/08/13 12:45:16;;;;;;;;;6.00;6.00;;;;;;;;5086693;27;45333;-78
2022/08/13 12:47:41;;;;;;;;;5.33;5.33;;;;;;;;5096107;27;45418;-78
2022/08/13 12:50:07;;;;;;;;;5.25;5.25;;;;;;;;5095807;27;45394;-79
2022/08/13 12:52:32;;;;;;;;;5.25;5.25;;;;;;;;5096359;27;46204;-78
2022/08/13 12:54:57;;;;;;;;;6.33;6.33;;;;;;;;5095890;27;46013;-79
2022/08/13 12:57:22;;;;;;;;;5.33;5.33;;;;;;;;5083574;27;45358;-78
2022/08/13 12:59:48;;;;;;;;;6.00;4.00;;;;;;;;5096138;27;45370;-77
2022/08/13 13:02:14;;;;;;;;;8.33;8.33;;;;;;;;5090542;27;45520;-78
2022/08/13 13:04:43;;;;;;;;;5.00;5.00;;;;;;;;5087943;27;46166;-78
2022/08/13 13:07:08;;;;;;;;;7.00;7.00;;;;;;;;5099057;27;45339;-78
2022/08/13 13:09:34;;;;;;;;;5.00;5.00;;;;;;;;5097861;27;45367;-78
2022/08/13 13:11:59;;;;;;;;;5.33;5.33;;;;;;;;5094010;27;45304;-78
2022/08/13 13:14:24;;;;;;;;;5.33;5.33;;;;;;;;5098098;27;45369;-78
2022/08/13 13:16:50;;;;;;;;;7.67;7.67;;;;;;;;5099113;27;45309;-78
2022/08/13 13:19:15;;;;;;;;;6.00;6.00;;;;;;;;5098999;27;45327;-77
2022/08/13 13:21:41;;;;;;;;;5.00;5.00;;;;;;;;5099165;27;45494;-78
2022/08/13 13:24:07;;;;;;;;;5.00;5.00;;;;;;;;5099025;27;45372;-78
2022/08/13 13:26:32;;;;;;;;;5.67;5.67;;;;;;;;5099171;27;45411;-77
2022/08/13 13:28:58;;;;;;;;;5.75;4.50;;;;;;;;5080592;27;45407;-79
2022/08/13 13:31:24;;;;;;;;;6.00;6.00;;;;;;;;5078751;27;45301;-77
2022/08/13 13:33:49;;;;;;;;;7.67;6.00;;;;;;;;5086898;27;45962;-78
2022/08/13 13:36:15;;;;;;;;;6.00;6.00;;;;;;;;5087250;27;45386;-78
2022/08/13 13:38:40;;;;;;;;;5.25;5.25;;;;;;;;5085556;27;45487;-78
2022/08/13 13:41:07;;;;;;;;;5.00;5.00;;;;;;;;5084349;27;45481;-78
2022/08/13 13:43:33;;;;;;;;;4.33;4.33;;;;;;;;5096975;27;46212;-78
2022/08/13 13:45:58;;;;;;;;;5.33;5.00;;;;;;;;5095237;27;45416;-78
2022/08/13 13:48:25;;;;;;;;;5.00;5.00;;;;;;;;5084040;27;45404;-79
2022/08/13 13:50:51;;;;;;;;;5.25;5.25;;;;;;;;5095666;27;45480;-78
2022/08/13 13:53:16;;;;;;;;;5.00;5.00;;;;;;;;5092775;27;45990;-79
2022/08/13 13:55:42;;;;;;;;;7.00;6.00;;;;;;;;5085424;27;45326;-78
2022/08/13 13:58:07;;;;;;;;;4.75;4.75;;;;;;;;5088381;27;45367;-78
2022/08/13 14:00:32;;;;;;;;;4.00;4.00;;;;;;;;5097163;27;45402;-79
2022/08/13 14:03:00;;;;;;;;;4.67;4.67;;;;;;;;5091006;27;47224;-79
2022/08/13 14:05:26;;;;;;;;;5.00;5.00;;;;;;;;5080139;27;45359;-77
2022/08/13 14:08:01;;;;;;;;;7.33;7.33;;;;;;;;5091859;27;45369;-78
2022/08/13 14:10:27;;;;;;;;;4.67;4.67;;;;;;;;5092528;27;45482;-77
2022/08/13 14:12:53;;;;;;;;;6.00;6.00;;;;;;;;5098151;27;46205;-77
2022/08/13 14:15:19;;;;;;;;;4.00;4.00;;;;;;;;5083844;27;45484;-79
2022/08/13 14:17:45;;;;;;;;;6.00;6.00;;;;;;;;5098081;27;45463;-79
2022/08/13 14:20:11;;;;;;;;;5.00;5.00;;;;;;;;5098319;27;45309;-79
2022/08/13 14:22:37;;;;;;;;;6.33;6.33;;;;;;;;5097283;27;46154;-79
2022/08/13 14:25:04;;;;;;;;;5.67;5.67;;;;;;;;5083954;27;45394;-78
2022/08/13 14:27:30;;;;;;;;;4.00;4.00;;;;;;;;5092611;27;45438;-79
2022/08/13 14:29:55;;;;;;;;;5.00;5.00;;;;;;;;5091114;27;45339;-78
2022/08/13 14:32:23;;;;;;;;;4.67;4.67;;;;;;;;5088253;27;45405;-79
2022/08/13 14:34:49;;;;;;;;;5.00;5.00;;;;;;;;5082039;27;45213;-79
2022/08/13 14:37:14;;;;;;;;;5.67;5.67;;;;;;;;5086836;27;45241;-79
2022/08/13 14:39:39;;;;;;;;;6.00;6.00;;;;;;;;5097048;27;45479;-79
2022/08/13 14:42:05;;;;;;;;;5.00;5.00;;;;;;;;5097808;27;45390;-78
2022/08/13 14:44:31;;;;;;;;;5.33;5.33;;;;;;;;5087601;27;45284;-79
2022/08/13 14:46:56;;;;;;;;;4.75;4.75;;;;;;;;5096290;27;45263;-79
2022/08/13 14:49:22;;;;;;;;;5.75;4.25;;;;;;;;5089322;27;45479;-79
2022/08/13 14:51:49;;;;;;;;;4.33;4.33;;;;;;;;5094166;27;46118;-79